sensor_id;sensor_type;location;lat;lon;timestamp;P1;durP1;ratioP1;P2;durP2;ratioP2
20792;SDS011;10556;-33.662;151.094;2023-03-11T00:01:42;4.28;;;0.70;;
20792;SDS011;10556;-33.662;151.094;2023-03-11T00:06:43;2.80;;;0.80;;
20792;SDS011;10556;-33.662;151.094;2023-03-11T00:11:46;2.05;;;0.60;;
20792;SDS011;10556;-33.662;151.094;2023-03-11T00:16:47;3.85;;;0.68;;
20792;SDS011;10556;-33.662;151.094;2023-03-11T00:21:48;2.42;;;0.88;;
20792;SDS011;10556;-33.662;151.094;2023-03-11T00:26:51;1.30;;;0.60;;
20792;SDS011;10556;-33.662;151.094;2023-03-11T00:31:53;2.08;;;0.80;;
20792;SDS011;10556;-33.662;151.094;2023-03-11T00:36:54;2.05;;;0.90;;
20792;SDS011;10556;-33.662;151.094;2023-03-11T00:41:57;2.50;;;0.88;;
20792;SDS011;10556;-33.662;151.094;2023-03-11T00:46:58;2.53;;;0.75;;
20792;SDS011;10556;-33.662;151.094;2023-03-11T00:51:59;1.52;;;0.80;;
20792;SDS011;10556;-33.662;151.094;2023-03-11T00:57:03;3.10;;;0.70;;
20792;SDS011;10556;-33.662;151.094;2023-03-11T01:02:04;2.38;;;0.77;;
20792;SDS011;10556;-33.662;151.094;2023-03-11T01:07:05;3.22;;;1.00;;
20792;SDS011;10556;-33.662;151.094;2023-03-11T01:12:08;2.35;;;0.77;;
20792;SDS011;10556;-33.662;151.094;2023-03-11T01:17:09;2.05;;;0.80;;
20792;SDS011;10556;-33.662;151.094;2023-03-11T01:22:11;2.55;;;0.70;;
20792;SDS011;10556;-33.662;151.094;2023-03-11T01:27:14;1.58;;;0.82;;
20792;SDS011;10556;-33.662;151.094;2023-03-11T01:32:15;1.70;;;0.90;;
20792;SDS011;10556;-33.662;151.094;2023-03-11T01:37:16;1.48;;;0.70;;
20792;SDS011;10556;-33.662;151.094;2023-03-11T01:42:19;3.95;;;1.20;;
20792;SDS011;10556;-33.662;151.094;2023-03-11T01:47:34;1.63;;;0.77;;
20792;SDS011;10556;-33.662;151.094;2023-03-11T01:52:36;1.13;;;0.70;;
20792;SDS011;10556;-33.662;151.094;2023-03-11T01:57:39;2.22;;;0.77;;
20792;SDS011;10556;-33.662;151.094;2023-03-11T02:02:42;2.58;;;0.77;;
20792;SDS011;10556;-33.662;151.094;2023-03-11T02:07:45;1.83;;;0.88;;
20792;SDS011;10556;-33.662;151.094;2023-03-11T02:12:48;2.40;;;0.70;;
20792;SDS011;10556;-33.662;151.094;2023-03-11T02:17:50;3.05;;;0.73;;
20792;SDS011;10556;-33.662;151.094;2023-03-11T02:22:52;3.70;;;1.00;;
20792;SDS011;10556;-33.662;151.094;2023-03-11T02:27:56;1.73;;;0.90;;
20792;SDS011;10556;-33.662;151.094;2023-03-11T02:32:59;1.63;;;0.90;;
20792;SDS011;10556;-33.662;151.094;2023-03-11T02:38:00;9.18;;;1.10;;
20792;SDS011;10556;-33.662;151.094;2023-03-11T02:43:04;3.35;;;0.65;;
20792;SDS011;10556;-33.662;151.094;2023-03-11T02:48:06;1.75;;;0.80;;
20792;SDS011;10556;-33.662;151.094;2023-03-11T02:53:08;1.88;;;1.13;;
20792;SDS011;10556;-33.662;151.094;2023-03-11T02:58:11;3.80;;;1.02;;
20792;SDS011;10556;-33.662;151.094;2023-03-11T03:03:12;2.13;;;1.05;;
20792;SDS011;10556;-33.662;151.094;2023-03-11T03:08:14;1.98;;;1.00;;
20792;SDS011;10556;-33.662;151.094;2023-03-11T03:13:17;0.80;;;0.70;;
20792;SDS011;10556;-33.662;151.094;2023-03-11T03:18:18;1.38;;;0.88;;
20792;SDS011;10556;-33.662;151.094;2023-03-11T03:23:19;1.50;;;1.20;;
20792;SDS011;10556;-33.662;151.094;2023-03-11T03:28:22;1.25;;;1.15;;
20792;SDS011;10556;-33.662;151.094;2023-03-11T03:33:24;2.28;;;1.20;;
20792;SDS011;10556;-33.662;151.094;2023-03-11T03:38:25;2.35;;;1.35;;
20792;SDS011;10556;-33.662;151.094;2023-03-11T03:43:31;1.20;;;1.00;;
20792;SDS011;10556;-33.662;151.094;2023-03-11T03:48:32;1.60;;;1.20;;
20792;SDS011;10556;-33.662;151.094;2023-03-11T03:53:34;2.95;;;1.25;;
20792;SDS011;10556;-33.662;151.094;2023-03-11T03:58:37;1.80;;;1.20;;
20792;SDS011;10556;-33.662;151.094;2023-03-11T04:03:38;1.30;;;1.20;;
20792;SDS011;10556;-33.662;151.094;2023-03-11T04:08:40;1.55;;;1.30;;
20792;SDS011;10556;-33.662;151.094;2023-03-11T04:13:43;2.75;;;1.40;;
20792;SDS011;10556;-33.662;151.094;2023-03-11T04:18:44;3.60;;;1.30;;
20792;SDS011;10556;-33.662;151.094;2023-03-11T04:23:45;2.78;;;0.88;;
20792;SDS011;10556;-33.662;151.094;2023-03-11T04:28:51;2.95;;;0.80;;
20792;SDS011;10556;-33.662;151.094;2023-03-11T04:33:53;4.32;;;1.00;;
20792;SDS011;10556;-33.662;151.094;2023-03-11T04:38:54;5.20;;;1.00;;
20792;SDS011;10556;-33.662;151.094;2023-03-11T04:43:57;3.95;;;0.93;;
20792;SDS011;10556;-33.662;151.094;2023-03-11T04:48:59;3.10;;;0.88;;
20792;SDS011;10556;-33.662;151.094;2023-03-11T04:54:00;4.05;;;1.13;;
20792;SDS011;10556;-33.662;151.094;2023-03-11T04:59:03;2.47;;;1.05;;
20792;SDS011;10556;-33.662;151.094;2023-03-11T05:04:04;3.42;;;0.95;;
20792;SDS011;10556;-33.662;151.094;2023-03-11T05:09:06;2.85;;;1.20;;
20792;SDS011;10556;-33.662;151.094;2023-03-11T05:14:09;3.95;;;1.15;;
20792;SDS011;10556;-33.662;151.094;2023-03-11T05:19:10;4.10;;;1.20;;
20792;SDS011;10556;-33.662;151.094;2023-03-11T05:24:11;5.15;;;1.05;;
20792;SDS011;10556;-33.662;151.094;2023-03-11T05:29:14;5.70;;;1.08;;
20792;SDS011;10556;-33.662;151.094;2023-03-11T05:34:16;6.13;;;1.83;;
20792;SDS011;10556;-33.662;151.094;2023-03-11T05:39:17;7.22;;;1.80;;
20792;SDS011;10556;-33.662;151.094;2023-03-11T05:44:20;3.28;;;1.08;;
20792;SDS011;10556;-33.662;151.094;2023-03-11T05:49:22;4.35;;;1.25;;
20792;SDS011;10556;-33.662;151.094;2023-03-11T05:54:23;3.83;;;1.15;;
20792;SDS011;10556;-33.662;151.094;2023-03-11T05:59:26;4.65;;;0.85;;
20792;SDS011;10556;-33.662;151.094;2023-03-11T06:04:27;1.35;;;0.90;;
20792;SDS011;10556;-33.662;151.094;2023-03-11T06:09:28;4.35;;;1.17;;
20792;SDS011;10556;-33.662;151.094;2023-03-11T06:14:32;2.10;;;0.80;;
20792;SDS011;10556;-33.662;151.094;2023-03-11T06:19:33;2.85;;;1.15;;
20792;SDS011;10556;-33.662;151.094;2023-03-11T06:24:34;5.38;;;1.35;;
20792;SDS011;10556;-33.662;151.094;2023-03-11T06:29:37;4.75;;;1.48;;
20792;SDS011;10556;-33.662;151.094;2023-03-11T06:34:38;4.80;;;1.10;;
20792;SDS011;10556;-33.662;151.094;2023-03-11T06:39:40;6.03;;;1.20;;
20792;SDS011;10556;-33.662;151.094;2023-03-11T06:44:43;2.08;;;1.00;;
20792;SDS011;10556;-33.662;151.094;2023-03-11T06:49:44;4.18;;;1.08;;
20792;SDS011;10556;-33.662;151.094;2023-03-11T06:54:45;5.22;;;1.00;;
20792;SDS011;10556;-33.662;151.094;2023-03-11T06:59:48;5.03;;;1.25;;
20792;SDS011;10556;-33.662;151.094;2023-03-11T07:04:49;4.70;;;1.30;;
20792;SDS011;10556;-33.662;151.094;2023-03-11T07:09:53;8.00;;;1.45;;
20792;SDS011;10556;-33.662;151.094;2023-03-11T07:14:57;3.97;;;0.90;;
20792;SDS011;10556;-33.662;151.094;2023-03-11T07:19:58;3.78;;;1.00;;
20792;SDS011;10556;-33.662;151.094;2023-03-11T07:24:59;5.00;;;1.40;;
20792;SDS011;10556;-33.662;151.094;2023-03-11T07:30:03;2.92;;;1.10;;
20792;SDS011;10556;-33.662;151.094;2023-03-11T07:35:04;4.82;;;1.27;;
20792;SDS011;10556;-33.662;151.094;2023-03-11T07:40:06;4.18;;;1.48;;
20792;SDS011;10556;-33.662;151.094;2023-03-11T07:45:10;8.50;;;2.00;;
20792;SDS011;10556;-33.662;151.094;2023-03-11T07:50:11;6.00;;;1.88;;
20792;SDS011;10556;-33.662;151.094;2023-03-11T07:55:12;7.65;;;1.77;;
20792;SDS011;10556;-33.662;151.094;2023-03-11T08:00:16;6.25;;;1.88;;
20792;SDS011;10556;-33.662;151.094;2023-03-11T08:05:17;4.50;;;1.77;;
20792;SDS011;10556;-33.662;151.094;2023-03-11T08:10:18;10.20;;;1.85;;
20792;SDS011;10556;-33.662;151.094;2023-03-11T08:15:22;5.85;;;1.95;;
20792;SDS011;10556;-33.662;151.094;2023-03-11T08:20:23;4.43;;;1.30;;
20792;SDS011;10556;-33.662;151.094;2023-03-11T08:25:24;5.27;;;1.50;;
20792;SDS011;10556;-33.662;151.094;2023-03-11T08:30:27;3.70;;;1.30;;
20792;SDS011;10556;-33.662;151.094;2023-03-11T08:35:28;3.23;;;1.30;;
20792;SDS011;10556;-33.662;151.094;2023-03-11T08:40:30;10.00;;;1.97;;
20792;SDS011;10556;-33.662;151.094;2023-03-11T08:45:33;3.97;;;1.40;;
20792;SDS011;10556;-33.662;151.094;2023-03-11T08:50:34;4.30;;;1.30;;
20792;SDS011;10556;-33.662;151.094;2023-03-11T08:55:35;3.07;;;1.10;;
20792;SDS011;10556;-33.662;151.094;2023-03-11T09:00:38;6.37;;;1.50;;
20792;SDS011;10556;-33.662;151.094;2023-03-11T09:05:40;3.20;;;1.10;;
20792;SDS011;10556;-33.662;151.094;2023-03-11T09:10:41;2.53;;;0.90;;
20792;SDS011;10556;-33.662;151.094;2023-03-11T09:15:44;4.10;;;1.17;;
20792;SDS011;10556;-33.662;151.094;2023-03-11T09:20:45;6.87;;;1.20;;
20792;SDS011;10556;-33.662;151.094;2023-03-11T09:25:46;2.83;;;1.23;;
20792;SDS011;10556;-33.662;151.094;2023-03-11T09:30:49;4.07;;;1.53;;
20792;SDS011;10556;-33.662;151.094;2023-03-11T09:35:51;5.33;;;1.10;;
20792;SDS011;10556;-33.662;151.094;2023-03-11T09:40:55;6.20;;;1.43;;
20792;SDS011;10556;-33.662;151.094;2023-03-11T09:46:01;7.60;;;1.33;;
20792;SDS011;10556;-33.662;151.094;2023-03-11T09:51:04;4.07;;;1.07;;
20792;SDS011;10556;-33.662;151.094;2023-03-11T09:56:10;3.07;;;0.80;;
20792;SDS011;10556;-33.662;151.094;2023-03-11T10:01:15;4.13;;;1.30;;
20792;SDS011;10556;-33.662;151.094;2023-03-11T10:06:19;6.23;;;1.23;;
20792;SDS011;10556;-33.662;151.094;2023-03-11T10:11:26;5.27;;;1.60;;
20792;SDS011;10556;-33.662;151.094;2023-03-11T10:16:33;6.80;;;1.40;;
20792;SDS011;10556;-33.662;151.094;2023-03-11T10:21:40;5.90;;;1.20;;
20792;SDS011;10556;-33.662;151.094;2023-03-11T10:26:44;8.37;;;1.53;;
20792;SDS011;10556;-33.662;151.094;2023-03-11T10:31:49;5.53;;;1.47;;
20792;SDS011;10556;-33.662;151.094;2023-03-11T10:36:54;1.97;;;0.97;;
20792;SDS011;10556;-33.662;151.094;2023-03-11T10:41:58;3.57;;;1.00;;
20792;SDS011;10556;-33.662;151.094;2023-03-11T10:47:02;3.77;;;1.20;;
20792;SDS011;10556;-33.662;151.094;2023-03-11T10:52:03;4.47;;;1.10;;
20792;SDS011;10556;-33.662;151.094;2023-03-11T10:57:05;4.67;;;1.20;;
20792;SDS011;10556;-33.662;151.094;2023-03-11T11:02:24;3.70;;;1.30;;
20792;SDS011;10556;-33.662;151.094;2023-03-11T11:07:27;4.23;;;1.70;;
20792;SDS011;10556;-33.662;151.094;2023-03-11T11:12:28;6.10;;;0.97;;
20792;SDS011;10556;-33.662;151.094;2023-03-11T11:17:31;6.30;;;1.40;;
20792;SDS011;10556;-33.662;151.094;2023-03-11T11:22:33;5.07;;;1.23;;
20792;SDS011;10556;-33.662;151.094;2023-03-11T11:27:35;4.50;;;0.90;;
20792;SDS011;10556;-33.662;151.094;2023-03-11T11:32:38;3.40;;;1.30;;
20792;SDS011;10556;-33.662;151.094;2023-03-11T11:37:40;2.70;;;0.90;;
20792;SDS011;10556;-33.662;151.094;2023-03-11T11:42:43;7.17;;;1.20;;
20792;SDS011;10556;-33.662;151.094;2023-03-11T11:47:48;2.73;;;1.70;;
20792;SDS011;10556;-33.662;151.094;2023-03-11T11:52:52;4.63;;;1.00;;
20792;SDS011;10556;-33.662;151.094;2023-03-11T11:57:56;4.00;;;1.10;;
20792;SDS011;10556;-33.662;151.094;2023-03-11T12:03:07;0.93;;;0.70;;
20792;SDS011;10556;-33.662;151.094;2023-03-11T12:08:15;1.83;;;1.03;;
20792;SDS011;10556;-33.662;151.094;2023-03-11T12:18:34;3.10;;;0.70;;
20792;SDS011;10556;-33.662;151.094;2023-03-11T12:23:39;1.53;;;0.70;;
20792;SDS011;10556;-33.662;151.094;2023-03-11T12:28:42;1.23;;;0.87;;
20792;SDS011;10556;-33.662;151.094;2023-03-11T12:33:47;1.20;;;0.73;;
20792;SDS011;10556;-33.662;151.094;2023-03-11T12:38:49;2.37;;;0.87;;
20792;SDS011;10556;-33.662;151.094;2023-03-11T12:49:12;1.70;;;0.60;;
20792;SDS011;10556;-33.662;151.094;2023-03-11T12:54:20;1.93;;;1.00;;
20792;SDS011;10556;-33.662;151.094;2023-03-11T12:59:25;2.73;;;0.90;;
20792;SDS011;10556;-33.662;151.094;2023-03-11T13:04:47;1.53;;;1.00;;
20792;SDS011;10556;-33.662;151.094;2023-03-11T13:20:48;1.47;;;0.77;;
20792;SDS011;10556;-33.662;151.094;2023-03-11T13:26:04;1.03;;;0.60;;
20792;SDS011;10556;-33.662;151.094;2023-03-11T13:31:15;1.70;;;0.83;;
20792;SDS011;10556;-33.662;151.094;2023-03-11T13:36:27;1.67;;;0.90;;
20792;SDS011;10556;-33.662;151.094;2023-03-11T13:41:32;1.97;;;0.90;;
20792;SDS011;10556;-33.662;151.094;2023-03-11T13:46:35;3.90;;;1.20;;
20792;SDS011;10556;-33.662;151.094;2023-03-11T13:51:39;1.97;;;0.90;;
20792;SDS011;10556;-33.662;151.094;2023-03-11T13:56:43;1.00;;;0.70;;
20792;SDS011;10556;-33.662;151.094;2023-03-11T14:01:49;1.33;;;0.80;;
20792;SDS011;10556;-33.662;151.094;2023-03-11T14:06:52;1.87;;;0.70;;
20792;SDS011;10556;-33.662;151.094;2023-03-11T14:11:53;1.67;;;0.80;;
20792;SDS011;10556;-33.662;151.094;2023-03-11T14:16:55;1.73;;;0.83;;
20792;SDS011;10556;-33.662;151.094;2023-03-11T14:21:58;1.37;;;0.90;;
20792;SDS011;10556;-33.662;151.094;2023-03-11T14:27:00;3.97;;;1.27;;
20792;SDS011;10556;-33.662;151.094;2023-03-11T14:32:14;3.80;;;1.33;;
20792;SDS011;10556;-33.662;151.094;2023-03-11T14:37:23;2.23;;;1.00;;
20792;SDS011;10556;-33.662;151.094;2023-03-11T14:42:24;6.10;;;1.83;;
20792;SDS011;10556;-33.662;151.094;2023-03-11T14:47:29;3.07;;;0.87;;
20792;SDS011;10556;-33.662;151.094;2023-03-11T14:52:34;4.90;;;1.43;;
20792;SDS011;10556;-33.662;151.094;2023-03-11T14:57:36;4.87;;;1.60;;
20792;SDS011;10556;-33.662;151.094;2023-03-11T15:02:39;4.30;;;1.53;;
20792;SDS011;10556;-33.662;151.094;2023-03-11T15:07:44;3.47;;;1.33;;
20792;SDS011;10556;-33.662;151.094;2023-03-11T15:12:46;6.60;;;1.63;;
20792;SDS011;10556;-33.662;151.094;2023-03-11T15:17:51;3.93;;;1.30;;
20792;SDS011;10556;-33.662;151.094;2023-03-11T15:22:57;5.30;;;1.67;;
20792;SDS011;10556;-33.662;151.094;2023-03-11T15:27:59;4.87;;;1.40;;
20792;SDS011;10556;-33.662;151.094;2023-03-11T15:33:19;5.40;;;2.03;;
20792;SDS011;10556;-33.662;151.094;2023-03-11T15:38:23;6.60;;;1.57;;
20792;SDS011;10556;-33.662;151.094;2023-03-11T15:43:26;5.50;;;1.87;;
20792;SDS011;10556;-33.662;151.094;2023-03-11T15:48:27;2.30;;;1.40;;
20792;SDS011;10556;-33.662;151.094;2023-03-11T15:53:31;4.47;;;1.53;;
20792;SDS011;10556;-33.662;151.094;2023-03-11T15:58:32;5.73;;;2.17;;
20792;SDS011;10556;-33.662;151.094;2023-03-11T16:03:33;6.37;;;1.90;;
20792;SDS011;10556;-33.662;151.094;2023-03-11T16:08:36;7.30;;;2.33;;
20792;SDS011;10556;-33.662;151.094;2023-03-11T16:13:38;5.07;;;1.97;;
20792;SDS011;10556;-33.662;151.094;2023-03-11T16:18:39;4.37;;;1.73;;
20792;SDS011;10556;-33.662;151.094;2023-03-11T16:23:42;6.13;;;1.73;;
20792;SDS011;10556;-33.662;151.094;2023-03-11T16:28:43;7.57;;;2.33;;
20792;SDS011;10556;-33.662;151.094;2023-03-11T16:33:44;3.73;;;1.70;;
20792;SDS011;10556;-33.662;151.094;2023-03-11T16:38:48;2.43;;;1.37;;
20792;SDS011;10556;-33.662;151.094;2023-03-11T16:43:49;2.60;;;1.47;;
20792;SDS011;10556;-33.662;151.094;2023-03-11T16:48:50;3.03;;;1.63;;
20792;SDS011;10556;-33.662;151.094;2023-03-11T16:54:04;2.83;;;1.40;;
20792;SDS011;10556;-33.662;151.094;2023-03-11T16:59:05;4.40;;;1.63;;
20792;SDS011;10556;-33.662;151.094;2023-03-11T17:04:06;2.03;;;1.47;;
20792;SDS011;10556;-33.662;151.094;2023-03-11T17:09:10;7.13;;;2.30;;
20792;SDS011;10556;-33.662;151.094;2023-03-11T17:14:11;2.90;;;1.50;;
20792;SDS011;10556;-33.662;151.094;2023-03-11T17:19:12;3.77;;;1.60;;
20792;SDS011;10556;-33.662;151.094;2023-03-11T17:24:15;6.33;;;1.90;;
20792;SDS011;10556;-33.662;151.094;2023-03-11T17:29:16;3.80;;;1.70;;
20792;SDS011;10556;-33.662;151.094;2023-03-11T17:34:18;6.23;;;2.10;;
20792;SDS011;10556;-33.662;151.094;2023-03-11T17:39:21;5.73;;;2.20;;
20792;SDS011;10556;-33.662;151.094;2023-03-11T17:44:22;2.60;;;1.70;;
20792;SDS011;10556;-33.662;151.094;2023-03-11T17:49:23;2.57;;;1.97;;
20792;SDS011;10556;-33.662;151.094;2023-03-11T17:54:26;2.53;;;1.83;;
20792;SDS011;10556;-33.662;151.094;2023-03-11T17:59:28;3.27;;;2.10;;
20792;SDS011;10556;-33.662;151.094;2023-03-11T18:04:29;4.70;;;2.87;;
20792;SDS011;10556;-33.662;151.094;2023-03-11T18:09:32;4.73;;;2.30;;
20792;SDS011;10556;-33.662;151.094;2023-03-11T18:14:34;3.47;;;2.50;;
20792;SDS011;10556;-33.662;151.094;2023-03-11T18:19:35;4.83;;;2.37;;
20792;SDS011;10556;-33.662;151.094;2023-03-11T18:24:38;6.33;;;2.50;;
20792;SDS011;10556;-33.662;151.094;2023-03-11T18:29:40;4.83;;;2.43;;
20792;SDS011;10556;-33.662;151.094;2023-03-11T18:34:41;5.97;;;2.30;;
20792;SDS011;10556;-33.662;151.094;2023-03-11T18:39:44;3.70;;;2.30;;
20792;SDS011;10556;-33.662;151.094;2023-03-11T18:44:45;6.47;;;2.67;;
20792;SDS011;10556;-33.662;151.094;2023-03-11T18:49:47;5.13;;;2.93;;
20792;SDS011;10556;-33.662;151.094;2023-03-11T18:54:50;4.07;;;2.40;;
20792;SDS011;10556;-33.662;151.094;2023-03-11T18:59:51;5.10;;;2.73;;
20792;SDS011;10556;-33.662;151.094;2023-03-11T19:04:52;7.40;;;2.53;;
20792;SDS011;10556;-33.662;151.094;2023-03-11T19:09:55;6.00;;;2.63;;
20792;SDS011;10556;-33.662;151.094;2023-03-11T19:14:57;3.00;;;2.17;;
20792;SDS011;10556;-33.662;151.094;2023-03-11T19:19:58;2.83;;;2.27;;
20792;SDS011;10556;-33.662;151.094;2023-03-11T19:25:01;2.67;;;2.13;;
20792;SDS011;10556;-33.662;151.094;2023-03-11T19:30:03;3.33;;;2.40;;
20792;SDS011;10556;-33.662;151.094;2023-03-11T19:35:04;2.80;;;1.90;;
20792;SDS011;10556;-33.662;151.094;2023-03-11T19:40:08;4.73;;;2.37;;
20792;SDS011;10556;-33.662;151.094;2023-03-11T19:45:10;4.50;;;2.37;;
20792;SDS011;10556;-33.662;151.094;2023-03-11T19:50:11;2.33;;;2.03;;
20792;SDS011;10556;-33.662;151.094;2023-03-11T19:55:14;2.93;;;2.00;;
20792;SDS011;10556;-33.662;151.094;2023-03-11T20:00:16;3.77;;;2.00;;
20792;SDS011;10556;-33.662;151.094;2023-03-11T20:05:17;3.20;;;1.60;;
20792;SDS011;10556;-33.662;151.094;2023-03-11T20:10:20;4.63;;;2.13;;
20792;SDS011;10556;-33.662;151.094;2023-03-11T20:15:22;2.07;;;1.67;;
20792;SDS011;10556;-33.662;151.094;2023-03-11T20:20:23;3.37;;;1.87;;
20792;SDS011;10556;-33.662;151.094;2023-03-11T20:25:26;2.97;;;1.90;;
20792;SDS011;10556;-33.662;151.094;2023-03-11T20:30:28;5.87;;;2.20;;
20792;SDS011;10556;-33.662;151.094;2023-03-11T20:35:29;2.83;;;1.80;;
20792;SDS011;10556;-33.662;151.094;2023-03-11T20:40:32;2.43;;;2.00;;
20792;SDS011;10556;-33.662;151.094;2023-03-11T20:45:33;5.63;;;1.90;;
20792;SDS011;10556;-33.662;151.094;2023-03-11T20:50:34;4.63;;;2.40;;
20792;SDS011;10556;-33.662;151.094;2023-03-11T20:55:39;4.03;;;1.93;;
20792;SDS011;10556;-33.662;151.094;2023-03-11T21:00:40;2.47;;;1.73;;
20792;SDS011;10556;-33.662;151.094;2023-03-11T21:05:41;4.57;;;2.03;;
20792;SDS011;10556;-33.662;151.094;2023-03-11T21:10:44;2.77;;;1.70;;
20792;SDS011;10556;-33.662;151.094;2023-03-11T21:15:46;2.57;;;1.90;;
20792;SDS011;10556;-33.662;151.094;2023-03-11T21:20:47;2.97;;;1.67;;
20792;SDS011;10556;-33.662;151.094;2023-03-11T21:25:50;4.67;;;1.63;;
20792;SDS011;10556;-33.662;151.094;2023-03-11T21:30:57;3.53;;;1.50;;
20792;SDS011;10556;-33.662;151.094;2023-03-11T21:35:58;1.67;;;1.43;;
20792;SDS011;10556;-33.662;151.094;2023-03-11T21:41:05;2.37;;;1.30;;
20792;SDS011;10556;-33.662;151.094;2023-03-11T21:46:07;1.73;;;1.40;;
20792;SDS011;10556;-33.662;151.094;2023-03-11T21:51:09;3.90;;;1.60;;
20792;SDS011;10556;-33.662;151.094;2023-03-11T21:56:12;2.03;;;1.00;;
20792;SDS011;10556;-33.662;151.094;2023-03-11T22:01:14;3.87;;;1.40;;
20792;SDS011;10556;-33.662;151.094;2023-03-11T22:06:15;3.47;;;1.20;;
20792;SDS011;10556;-33.662;151.094;2023-03-11T22:11:18;3.23;;;1.30;;
20792;SDS011;10556;-33.662;151.094;2023-03-11T22:16:20;2.70;;;1.33;;
20792;SDS011;10556;-33.662;151.094;2023-03-11T22:21:21;3.00;;;1.37;;
20792;SDS011;10556;-33.662;151.094;2023-03-11T22:26:24;3.10;;;1.43;;
20792;SDS011;10556;-33.662;151.094;2023-03-11T22:31:25;4.13;;;1.50;;
20792;SDS011;10556;-33.662;151.094;2023-03-11T22:36:26;1.57;;;1.00;;
20792;SDS011;10556;-33.662;151.094;2023-03-11T22:41:30;3.03;;;1.20;;
20792;SDS011;10556;-33.662;151.094;2023-03-11T22:46:31;2.97;;;1.17;;
20792;SDS011;10556;-33.662;151.094;2023-03-11T22:51:32;4.20;;;1.43;;
20792;SDS011;10556;-33.662;151.094;2023-03-11T22:56:35;3.07;;;1.50;;
20792;SDS011;10556;-33.662;151.094;2023-03-11T23:01:36;5.47;;;1.10;;
20792;SDS011;10556;-33.662;151.094;2023-03-11T23:06:38;3.20;;;1.10;;
20792;SDS011;10556;-33.662;151.094;2023-03-11T23:11:41;3.90;;;1.20;;
20792;SDS011;10556;-33.662;151.094;2023-03-11T23:16:42;2.97;;;1.03;;
20792;SDS011;10556;-33.662;151.094;2023-03-11T23:21:43;2.23;;;0.73;;
20792;SDS011;10556;-33.662;151.094;2023-03-11T23:26:46;1.60;;;0.80;;
20792;SDS011;10556;-33.662;151.094;2023-03-11T23:31:48;1.98;;;0.90;;
20792;SDS011;10556;-33.662;151.094;2023-03-11T23:36:49;1.77;;;0.98;;
20792;SDS011;10556;-33.662;151.094;2023-03-11T23:41:52;3.23;;;0.83;;
20792;SDS011;10556;-33.662;151.094;2023-03-11T23:46:53;3.78;;;1.30;;
20792;SDS011;10556;-33.662;151.094;2023-03-11T23:51:54;1.17;;;0.70;;
20792;SDS011;10556;-33.662;151.094;2023-03-11T23:56:57;2.85;;;0.98;;
